Time;durP1;ratioP1;P1;durP2;ratioP2;P2;SDS_P1;SDS_P2;PMS_P1;PMS_P2;Temp;Humidity;BMP_temperature;BMP_pressure;BME280_temperature;BME280_humidity;BME280_pressure;Samples;Min_cycle;Max_cycle;Signal;HPM_P1;HPM_P2
2022/11/19 00:01:28;;;;;;;19.85;9.52;;;-5.70;1.00;;;-147.47;100.00;69272.31;5177419;27;31922;-75
2022/11/19 00:03:57;;;;;;;16.83;9.18;;;-5.70;1.00;;;-147.47;100.00;69272.31;5178767;27;31514;-75
2022/11/19 00:06:28;;;;;;;17.17;9.43;;;-5.70;1.00;;;-147.47;100.00;69272.31;5178180;27;33354;-75
2022/11/19 00:08:56;;;;;;;17.95;9.40;;;-5.60;1.00;;;-147.47;100.00;69272.31;5178298;27;33169;-75
2022/11/19 00:14:11;;;;;;;17.58;10.15;;;-5.60;1.00;;;-147.47;100.00;69272.31;5146064;27;31292;-75
2022/11/19 00:16:42;;;;;;;16.50;9.20;;;-5.50;1.00;;;-147.47;100.00;69272.31;5178752;27;32481;-77
2022/11/19 00:19:12;;;;;;;16.23;9.20;;;-5.50;1.00;;;-147.47;100.00;69272.31;5177412;27;32838;-78
2022/11/19 00:21:40;;;;;;;16.77;8.68;;;-5.50;1.00;;;-147.47;100.00;69272.31;5162852;27;30298;-77
2022/11/19 00:24:09;;;;;;;17.02;9.38;;;-5.50;1.00;;;-147.47;100.00;69272.31;5178349;27;31531;-76
2022/11/19 00:26:38;;;;;;;15.52;8.98;;;-5.60;1.00;;;-147.47;100.00;69272.31;5159661;27;32731;-77
2022/11/19 00:29:06;;;;;;;15.82;8.90;;;-5.50;1.00;;;-147.47;100.00;69272.31;5144795;27;30763;-76
2022/11/19 00:31:35;;;;;;;15.80;9.10;;;-5.50;1.00;;;-147.47;100.00;69272.31;5178401;27;32768;-76
2022/11/19 00:34:05;;;;;;;15.77;9.50;;;-5.50;1.00;;;-147.47;100.00;69272.31;5178055;27;32341;-75
2022/11/19 00:36:33;;;;;;;16.63;9.63;;;-5.50;1.00;;;-147.47;100.00;69272.31;5159691;27;33884;-76
2022/11/19 00:39:02;;;;;;;17.80;9.27;;;-5.50;1.00;;;-147.47;100.00;69272.31;5178114;27;31720;-76
2022/11/19 00:41:30;;;;;;;16.50;9.23;;;-5.50;1.00;;;-147.47;100.00;69272.31;5177445;27;31725;-77
2022/11/19 00:43:58;;;;;;;17.65;8.88;;;-5.50;1.00;;;-147.47;100.00;69272.31;5162534;27;30685;-77
2022/11/19 00:46:30;;;;;;;16.17;9.48;;;-5.50;1.00;;;-147.47;100.00;69272.31;5177668;27;32623;-77
2022/11/19 00:49:00;;;;;;;15.35;9.30;;;-5.50;1.00;;;-147.47;100.00;69272.31;5177917;27;31760;-77
2022/11/19 00:51:31;;;;;;;16.30;9.65;;;-5.50;1.00;;;-147.47;100.00;69272.31;5177039;27;31576;-78
2022/11/19 00:54:00;;;;;;;19.90;9.88;;;-5.40;1.00;;;-147.47;100.00;69272.31;5162212;27;31168;-77
2022/11/19 00:56:28;;;;;;;15.30;8.45;;;-5.40;1.00;;;-147.47;100.00;69272.31;5178107;27;32563;-76
2022/11/19 00:58:57;;;;;;;14.70;9.00;;;-5.30;1.00;;;-147.47;100.00;69272.31;5177667;27;31965;-77
2022/11/19 01:01:26;;;;;;;15.80;8.70;;;-5.40;1.00;;;-147.47;100.00;69272.31;5161863;27;31152;-76
2022/11/19 01:03:55;;;;;;;16.35;9.63;;;-5.40;1.00;;;-147.47;100.00;69272.31;5162105;27;32235;-76
2022/11/19 01:06:25;;;;;;;17.67;9.80;;;-5.40;1.00;;;-147.47;100.00;69272.31;5159067;27;32295;-76
2022/11/19 01:08:56;;;;;;;15.00;8.63;;;-5.50;1.00;;;-147.47;100.00;69272.31;5177906;27;32083;-77
2022/11/19 01:11:27;;;;;;;14.07;8.40;;;-5.50;1.00;;;-147.47;100.00;69272.31;5177685;27;31598;-78
2022/11/19 01:13:56;;;;;;;14.45;9.00;;;-5.40;1.00;;;-147.47;100.00;69272.31;5161118;27;30485;-74
2022/11/19 01:16:28;;;;;;;15.68;9.10;;;-5.40;1.00;;;-147.47;100.00;69272.31;5162280;27;31434;-74
2022/11/19 01:18:57;;;;;;;16.70;9.52;;;-5.40;1.00;;;-147.47;100.00;69272.31;5162066;27;31472;-77
2022/11/19 01:21:28;;;;;;;14.75;9.27;;;-5.40;1.00;;;-147.47;100.00;69272.31;5177204;27;31588;-76
2022/11/19 01:23:59;;;;;;;14.90;9.10;;;-5.30;1.00;;;-147.47;100.00;69272.31;5160868;27;30709;-76
2022/11/19 01:26:30;;;;;;;17.27;9.32;;;-5.40;1.00;;;-147.47;100.00;69272.31;5178320;27;33329;-77
2022/11/19 01:28:59;;;;;;;14.68;8.95;;;-5.40;1.00;;;-147.47;100.00;69272.31;5178059;27;32785;-77
2022/11/19 01:31:30;;;;;;;16.35;9.10;;;-5.40;1.00;;;-147.47;100.00;69272.31;5178648;27;31750;-77
2022/11/19 01:33:59;;;;;;;16.55;8.70;;;-5.30;1.00;;;-147.47;100.00;69272.31;5179685;27;31525;-75
2022/11/19 01:36:29;;;;;;;15.55;9.57;;;-5.40;1.00;;;-147.47;100.00;69272.31;5165254;27;31752;-76
2022/11/19 01:38:59;;;;;;;16.30;9.30;;;-5.30;1.00;;;-147.47;100.00;69272.31;5182320;27;31981;-79
2022/11/19 01:41:30;;;;;;;19.02;10.20;;;-5.30;1.00;;;-147.47;100.00;69272.31;5168507;27;30080;-77
2022/11/19 01:44:01;;;;;;;15.68;9.30;;;-5.30;1.00;;;-147.47;100.00;69272.31;5183163;27;31761;-79
2022/11/19 01:46:32;;;;;;;16.02;9.27;;;-5.30;1.00;;;-147.47;100.00;69272.31;5180724;27;32446;-77
2022/11/19 01:49:07;;;;;;;18.40;10.27;;;-5.40;1.00;;;-147.47;100.00;69272.31;5182132;27;32572;-77
2022/11/19 01:51:38;;;;;;;17.73;9.77;;;-5.50;1.00;;;-147.47;100.00;69272.31;5182884;27;32356;-77
2022/11/19 01:54:17;;;;;;;15.07;8.98;;;-5.50;1.00;;;-147.47;100.00;69272.31;5182617;27;31491;-80
2022/11/19 01:56:46;;;;;;;16.73;9.45;;;-5.50;1.00;;;-147.47;100.00;69272.31;5180633;27;32527;-76
2022/11/19 01:59:18;;;;;;;17.60;9.80;;;-5.50;1.00;;;-147.47;100.00;69272.31;5164278;27;31895;-78
2022/11/19 02:01:46;;;;;;;17.58;9.35;;;-5.40;1.00;;;-147.47;100.00;69272.31;5180225;27;31869;-77
2022/11/19 02:04:17;;;;;;;18.25;10.07;;;-5.30;1.00;;;-147.47;100.00;69272.31;5180297;27;32586;-79
2022/11/19 02:06:47;;;;;;;15.77;9.45;;;-5.30;1.00;;;-147.47;100.00;69272.31;5180386;27;32543;-77
2022/11/19 02:09:17;;;;;;;16.45;9.88;;;-5.30;1.00;;;-147.47;100.00;69272.31;5177713;27;31903;-77
2022/11/19 02:12:15;;;;;;;16.75;9.55;;;-5.30;1.00;;;-147.47;100.00;69272.31;5178308;27;31993;-76
2022/11/19 02:15:20;;;;;;;18.33;10.40;;;-5.40;1.00;;;-147.47;100.00;69272.31;5178001;27;32442;-77
2022/11/19 02:18:09;;;;;;;16.88;10.27;;;-5.40;1.00;;;-147.47;100.00;69272.31;5162823;27;31071;-76
2022/11/19 02:20:55;;;;;;;18.33;10.13;;;-5.40;1.00;;;-147.47;100.00;69272.31;5186566;27;33675;-77
2022/11/19 02:24:24;;;;;;;18.30;10.07;;;-5.30;1.00;;;-147.47;100.00;69272.31;5186843;27;32414;-76
2022/11/19 02:27:49;;;;;;;15.55;9.30;;;-5.30;1.00;;;-147.47;100.00;69272.31;5173090;27;31732;-77
2022/11/19 02:30:20;;;;;;;17.58;10.20;;;-5.10;1.00;;;-147.47;100.00;69272.31;5184436;27;32819;-79
2022/11/19 02:33:05;;;;;;;19.17;9.93;;;-5.00;1.00;;;-147.47;100.00;69272.31;5169206;27;31844;-78
2022/11/19 02:35:46;;;;;;;18.33;10.20;;;-5.20;1.00;;;-147.47;100.00;69272.31;5165857;27;32061;-77
2022/11/19 02:38:28;;;;;;;18.83;10.90;;;-5.10;1.00;;;-147.47;100.00;69272.31;5182067;27;32011;-76
2022/11/19 02:41:32;;;;;;;17.42;10.23;;;-5.00;1.00;;;-147.47;100.00;69272.31;5179692;27;32353;-76
2022/11/19 02:44:57;;;;;;;20.85;10.43;;;-5.20;1.00;;;-147.47;100.00;69272.31;5182952;27;32061;-76
2022/11/19 02:46:53;;;;;;;19.63;9.98;;;-5.10;1.00;;;-147.47;100.00;69272.31;5164471;27;30543;-75
2022/11/19 02:49:26;;;;;;;19.90;10.48;;;-5.00;1.00;;;-147.47;100.00;69272.31;5165470;27;31715;-76
2022/11/19 02:51:55;;;;;;;18.42;10.50;;;-5.10;1.00;;;-147.47;100.00;69272.31;5180588;27;33814;-77
2022/11/19 02:54:25;;;;;;;18.00;10.18;;;-5.10;1.00;;;-147.47;100.00;69272.31;5182146;27;32912;-76
2022/11/19 02:56:57;;;;;;;16.80;9.63;;;-5.00;1.00;;;-147.47;100.00;69272.31;5166727;27;31147;-75
2022/11/19 03:05:26;;;;;;;16.17;10.05;;;-5.00;1.00;;;-147.47;100.00;69272.31;5119132;28;32171;-78
2022/11/19 03:07:55;;;;;;;15.45;9.98;;;-5.10;1.00;;;-147.47;100.00;69272.31;5154320;27;31404;-78
2022/11/19 03:10:27;;;;;;;16.10;10.40;;;-5.00;1.00;;;-147.47;100.00;69272.31;5180788;27;31643;-78
2022/11/19 03:16:40;;;;;;;17.10;9.65;;;-5.10;1.00;;;-147.47;100.00;69272.31;5179903;27;32597;-77
2022/11/19 03:18:50;;;;;;;;;;;-5.20;1.00;;;-147.47;100.00;69272.31;5180268;27;32009;-75
2022/11/19 03:21:26;;;;;;;15.52;9.60;;;-5.00;1.00;;;-147.47;100.00;69272.31;5163874;27;31176;-77
2022/11/19 03:24:01;;;;;;;18.03;10.17;;;-5.10;1.00;;;-147.47;100.00;69272.31;5179723;27;33997;-77
2022/11/19 03:26:33;;;;;;;17.75;10.05;;;-5.20;1.00;;;-147.47;100.00;69272.31;5179053;27;32001;-78
2022/11/19 03:29:08;;;;;;;19.38;10.90;;;-5.10;1.00;;;-147.47;100.00;69272.31;5164003;27;30407;-76
2022/11/19 03:31:39;;;;;;;18.42;10.32;;;-5.10;1.00;;;-147.47;100.00;69272.31;5164650;27;31614;-77
2022/11/19 03:34:15;;;;;;;18.77;10.45;;;-5.10;1.00;;;-147.47;100.00;69272.31;5179269;27;33241;-77
2022/11/19 03:36:46;;;;;;;16.83;9.82;;;-5.10;1.00;;;-147.47;100.00;69272.31;5159838;27;32898;-77
2022/11/19 03:39:19;;;;;;;16.63;10.10;;;-5.00;1.00;;;-147.47;100.00;69272.31;5179866;27;31580;-76
2022/11/19 03:41:51;;;;;;;17.70;10.45;;;-5.00;1.00;;;-147.47;100.00;69272.31;5179530;27;31501;-78
2022/11/19 03:44:25;;;;;;;20.00;10.73;;;-5.00;1.00;;;-147.47;100.00;69272.31;5164010;27;32128;-77
2022/11/19 03:46:59;;;;;;;18.45;10.00;;;-5.10;1.00;;;-147.47;100.00;69272.31;5178365;27;31917;-77
2022/11/19 03:49:33;;;;;;;16.58;9.50;;;-5.00;1.00;;;-147.47;100.00;69272.31;5179191;27;31588;-76
2022/11/19 03:52:09;;;;;;;17.33;9.95;;;-5.10;1.00;;;-147.47;100.00;69272.31;5179161;27;32435;-77
2022/11/19 03:54:39;;;;;;;17.05;9.82;;;-5.00;1.00;;;-147.47;100.00;69272.31;5160675;27;32447;-77
2022/11/19 03:57:10;;;;;;;18.00;10.38;;;-5.00;1.00;;;-147.47;100.00;69272.31;5178220;27;33320;-76
2022/11/19 03:59:39;;;;;;;16.13;9.77;;;-4.90;1.00;;;-147.47;100.00;69272.31;5163328;27;32189;-76
2022/11/19 04:02:10;;;;;;;15.38;9.98;;;-4.80;1.00;;;-147.47;100.00;69272.31;5179327;27;32311;-77
2022/11/19 04:04:40;;;;;;;16.00;9.27;;;-4.80;1.00;;;-147.47;100.00;69272.31;5179045;27;33257;-76
2022/11/19 04:07:12;;;;;;;20.80;10.15;;;-4.80;1.00;;;-147.47;100.00;69272.31;5178586;27;32967;-76
2022/11/19 04:09:42;;;;;;;21.23;10.18;;;-4.90;1.00;;;-147.47;100.00;69272.31;5162665;27;31255;-76
2022/11/19 04:12:19;;;;;;;17.10;10.05;;;-4.90;1.00;;;-147.47;100.00;69272.31;5163585;27;31209;-77
2022/11/19 04:14:48;;;;;;;19.85;10.20;;;-5.00;1.00;;;-147.47;100.00;69272.31;5178564;27;32557;-76
2022/11/19 04:17:17;;;;;;;17.70;10.15;;;-5.00;1.00;;;-147.47;100.00;69272.31;5178376;27;33645;-76
2022/11/19 04:19:48;;;;;;;21.95;10.23;;;-4.90;1.00;;;-147.47;100.00;69272.31;5177897;27;32639;-76
2022/11/19 04:22:16;;;;;;;15.77;10.82;;;-4.90;1.00;;;-147.47;100.00;69272.31;5178808;27;32268;-75
2022/11/19 04:24:44;;;;;;;21.83;10.55;;;-4.90;1.00;;;-147.47;100.00;69272.31;5178284;27;32939;-75
2022/11/19 04:27:13;;;;;;;19.40;10.82;;;-4.90;1.00;;;-147.47;100.00;69272.31;5163001;27;30953;-73
2022/11/19 04:29:41;;;;;;;17.63;10.35;;;-4.80;1.00;;;-147.47;100.00;69272.31;5178310;27;31878;-74
2022/11/19 04:32:10;;;;;;;18.45;11.07;;;-4.80;1.00;;;-147.47;100.00;69272.31;5177474;27;32659;-76
2022/11/19 04:34:38;;;;;;;18.80;10.70;;;-4.80;1.00;;;-147.47;100.00;69272.31;5178171;27;32475;-76
2022/11/19 04:37:08;;;;;;;18.20;10.05;;;-4.90;1.00;;;-147.47;100.00;69272.31;5178319;27;31819;-74
2022/11/19 04:39:37;;;;;;;17.08;9.77;;;-4.80;1.00;;;-147.47;100.00;69272.31;5179400;27;31714;-77
2022/11/19 04:42:05;;;;;;;19.23;10.48;;;-4.70;1.00;;;-147.47;100.00;69272.31;5144501;27;30740;-75
2022/11/19 04:44:34;;;;;;;18.58;11.27;;;-4.80;1.00;;;-147.47;100.00;69272.31;5177924;27;33355;-76
2022/11/19 04:47:02;;;;;;;19.35;10.77;;;-4.80;1.00;;;-147.47;100.00;69272.31;5162510;27;30573;-76
2022/11/19 04:49:31;;;;;;;17.58;10.82;;;-4.70;1.00;;;-147.47;100.00;69272.31;5178007;27;32431;-74
2022/11/19 04:52:00;;;;;;;17.65;10.98;;;-4.80;1.00;;;-147.47;100.00;69272.31;5177872;27;31471;-75
2022/11/19 04:54:29;;;;;;;18.17;10.55;;;-4.70;1.00;;;-147.47;100.00;69272.31;5177062;27;32723;-75
2022/11/19 04:56:58;;;;;;;17.65;10.25;;;-4.70;1.00;;;-147.47;100.00;69272.31;5162445;27;31327;-75
2022/11/19 04:59:26;;;;;;;18.13;10.57;;;-4.70;1.00;;;-147.47;100.00;69272.31;5178059;27;32005;-76
2022/11/19 05:01:55;;;;;;;18.77;10.00;;;-4.70;1.00;;;-147.47;100.00;69272.31;5178277;27;31707;-75
2022/11/19 05:04:23;;;;;;;19.35;11.68;;;-4.80;1.00;;;-147.47;100.00;69272.31;5176627;27;33668;-75
2022/11/19 05:06:52;;;;;;;19.45;10.23;;;-4.70;1.00;;;-147.47;100.00;69272.31;5177493;27;32711;-76
2022/11/19 05:09:21;;;;;;;19.55;11.02;;;-4.70;1.00;;;-147.47;100.00;69272.31;5176845;27;31739;-77
2022/11/19 05:11:50;;;;;;;20.35;10.85;;;-4.70;1.00;;;-147.47;100.00;69272.31;5162380;27;30765;-76
2022/11/19 05:14:19;;;;;;;22.13;11.48;;;-4.80;1.00;;;-147.47;100.00;69272.31;5161370;27;31125;-78
2022/11/19 05:16:47;;;;;;;19.10;11.40;;;-4.70;1.00;;;-147.47;100.00;69272.31;5177145;27;33217;-76
2022/11/19 05:19:16;;;;;;;18.08;10.52;;;-4.70;1.00;;;-147.47;100.00;69272.31;5162218;27;31508;-76
2022/11/19 05:21:44;;;;;;;19.23;11.23;;;-4.60;1.00;;;-147.47;100.00;69272.31;5161998;27;32137;-77
2022/11/19 05:24:13;;;;;;;19.80;10.35;;;-4.60;1.00;;;-147.47;100.00;69272.31;5177437;27;32720;-76
2022/11/19 05:26:41;;;;;;;21.30;10.73;;;-4.80;1.00;;;-147.47;100.00;69272.31;5176771;27;31821;-77
2022/11/19 05:29:11;;;;;;;21.42;10.80;;;-4.80;1.00;;;-147.47;100.00;69272.31;5177701;27;31805;-79
2022/11/19 05:31:40;;;;;;;18.75;11.07;;;-4.70;1.00;;;-147.47;100.00;69272.31;5177998;27;31277;-79
2022/11/19 05:34:09;;;;;;;17.95;11.40;;;-4.60;1.00;;;-147.47;100.00;69272.31;5177460;27;32474;-78
2022/11/19 05:36:37;;;;;;;19.40;11.07;;;-4.60;1.00;;;-147.47;100.00;69272.31;5177121;27;31804;-80
2022/11/19 05:39:05;;;;;;;20.20;10.80;;;-4.60;1.00;;;-147.47;100.00;69272.31;5177886;27;31697;-78
2022/11/19 05:41:34;;;;;;;18.00;10.55;;;-4.50;1.00;;;-147.47;100.00;69272.31;5162344;27;30543;-76
2022/11/19 05:44:03;;;;;;;17.42;10.30;;;-4.50;1.00;;;-147.47;100.00;69272.31;5177362;27;33065;-78
2022/11/19 05:46:33;;;;;;;19.33;10.93;;;-4.50;1.00;;;-147.47;100.00;69272.31;5161925;27;32506;-78
2022/11/19 05:49:01;;;;;;;18.02;10.82;;;-4.50;1.00;;;-147.47;100.00;69272.31;5160836;27;30585;-77
2022/11/19 05:51:29;;;;;;;17.13;10.95;;;-4.50;1.00;;;-147.47;100.00;69272.31;5177051;27;31776;-77
2022/11/19 05:53:58;;;;;;;21.02;11.20;;;-4.40;1.00;;;-147.47;100.00;69272.31;5177026;27;32703;-75
2022/11/19 05:56:27;;;;;;;19.13;11.05;;;-4.50;1.00;;;-147.47;100.00;69272.31;5144131;27;30962;-77
2022/11/19 05:58:55;;;;;;;18.65;10.82;;;-4.50;1.00;;;-147.47;100.00;69272.31;5157185;27;31787;-75
2022/11/19 06:01:25;;;;;;;18.58;10.95;;;-4.50;1.00;;;-147.47;100.00;69272.31;5177168;27;31567;-78
2022/11/19 06:03:55;;;;;;;20.25;11.13;;;-4.40;1.00;;;-147.47;100.00;69272.31;5176828;27;32333;-77
2022/11/19 06:06:24;;;;;;;17.05;9.75;;;-4.50;1.00;;;-147.47;100.00;69272.31;5177219;27;32768;-75
2022/11/19 06:08:53;;;;;;;17.52;10.38;;;-4.50;1.00;;;-147.47;100.00;69272.31;5158183;27;32325;-76
2022/11/19 06:14:07;;;;;;;17.90;10.93;;;-4.50;1.00;;;-147.47;100.00;69272.31;5176916;27;32653;-76
2022/11/19 06:16:35;;;;;;;21.45;11.35;;;-4.60;1.00;;;-147.47;100.00;69272.31;5161594;27;31513;-76
2022/11/19 06:19:05;;;;;;;17.30;10.05;;;-4.50;1.00;;;-147.47;100.00;69272.31;5158090;27;31830;-78
2022/11/19 06:21:34;;;;;;;16.98;10.65;;;-4.40;1.00;;;-147.47;100.00;69272.31;5179011;27;32268;-77
2022/11/19 06:24:02;;;;;;;17.42;10.40;;;-4.40;1.00;;;-147.47;100.00;69272.31;5182510;27;31724;-77
2022/11/19 06:26:31;;;;;;;18.15;10.60;;;-4.40;1.00;;;-147.47;100.00;69272.31;5180044;27;32068;-74
2022/11/19 06:29:00;;;;;;;18.50;10.60;;;-4.40;1.00;;;-147.47;100.00;69272.31;5180239;27;32705;-76
2022/11/19 06:31:28;;;;;;;18.27;10.65;;;-4.30;1.00;;;-147.47;100.00;69272.31;5164363;27;31402;-76
2022/11/19 06:33:57;;;;;;;18.20;9.95;;;-4.20;1.00;;;-147.47;100.00;69272.31;5180240;27;33192;-79
2022/11/19 06:36:27;;;;;;;18.38;10.20;;;-4.20;1.00;;;-147.47;100.00;69272.31;5164638;27;30936;-77
2022/11/19 06:38:55;;;;;;;19.15;10.50;;;-4.30;1.00;;;-147.47;100.00;69272.31;5143382;27;30247;-78
2022/11/19 06:41:24;;;;;;;18.25;10.13;;;-4.20;1.00;;;-147.47;100.00;69272.31;5161147;27;30494;-72
2022/11/19 06:43:53;;;;;;;17.40;9.88;;;-4.20;1.00;;;-147.47;100.00;69272.31;5157847;27;32451;-75
2022/11/19 06:46:21;;;;;;;17.77;10.82;;;-4.10;1.00;;;-147.47;100.00;69272.31;5158867;27;32689;-75
2022/11/19 06:48:50;;;;;;;19.02;10.63;;;-4.10;1.00;;;-147.47;100.00;69272.31;5157403;27;31645;-78
2022/11/19 06:51:18;;;;;;;14.98;8.98;;;-4.20;1.00;;;-147.47;100.00;69272.31;5159097;27;32506;-75
2022/11/19 06:53:48;;;;;;;17.20;9.07;;;-4.20;1.00;;;-147.47;100.00;69272.31;5159743;27;31202;-69
2022/11/19 06:56:17;;;;;;;16.10;9.90;;;-4.10;1.00;;;-147.47;100.00;69272.31;5158846;27;31567;-75
2022/11/19 06:58:45;;;;;;;17.85;9.63;;;-4.20;1.00;;;-147.47;100.00;69272.31;5158457;27;32334;-75
2022/11/19 07:01:14;;;;;;;15.68;9.43;;;-4.00;1.00;;;-147.47;100.00;69272.31;5160359;27;31558;-74
2022/11/19 07:03:43;;;;;;;20.55;10.70;;;-3.90;1.00;;;-147.47;100.00;69272.31;5142766;27;31948;-76
2022/11/19 07:06:11;;;;;;;17.45;10.27;;;-3.70;1.00;;;-147.47;100.00;69272.31;5150849;27;32787;-76
2022/11/19 07:08:40;;;;;;;20.00;11.45;;;-3.60;1.00;;;-147.47;100.00;69272.31;5146630;27;31707;-75
2022/11/19 07:11:25;;;;;;;17.10;9.88;;;-3.80;1.00;;;-147.47;100.00;69272.31;5146317;27;31156;-75
2022/11/19 07:13:58;;;;;;;16.27;10.02;;;-3.80;1.00;;;-147.47;100.00;69272.31;5143528;27;33254;-76
2022/11/19 07:16:32;;;;;;;18.55;9.90;;;-3.70;1.00;;;-147.47;100.00;69272.31;5143923;27;31014;-75
2022/11/19 07:19:04;;;;;;;19.70;10.00;;;-3.70;1.00;;;-147.47;100.00;69272.31;5146956;27;31220;-75
2022/11/19 07:21:33;;;;;;;16.98;9.50;;;-3.60;1.00;;;-147.47;100.00;69272.31;5142019;27;31826;-75
2022/11/19 07:24:06;;;;;;;18.13;10.60;;;-3.70;1.00;;;-147.47;100.00;69272.31;5147832;27;33599;-74
2022/11/19 07:26:37;;;;;;;16.75;10.45;;;-3.80;1.00;;;-147.47;100.00;69272.31;5145014;27;32388;-75
2022/11/19 07:29:08;;;;;;;16.65;10.57;;;-3.70;1.00;;;-147.47;100.00;69272.31;5162450;27;31913;-76
2022/11/19 07:31:37;;;;;;;17.00;10.13;;;-3.70;1.00;;;-147.47;100.00;69272.31;5146329;27;32208;-75
2022/11/19 07:34:07;;;;;;;16.35;9.90;;;-3.70;1.00;;;-147.47;100.00;69272.31;5147315;27;32458;-76
2022/11/19 07:36:36;;;;;;;14.80;9.35;;;-3.70;1.00;;;-147.47;100.00;69272.31;5141575;27;31725;-74
2022/11/19 07:39:06;;;;;;;17.52;9.68;;;-3.60;1.00;;;-147.47;100.00;69272.31;5150506;27;31952;-75
2022/11/19 07:44:22;;;;;;;16.30;9.73;;;-3.40;1.00;;;-147.47;100.00;69272.31;5149491;27;34002;-75
2022/11/19 07:46:50;;;;;;;16.90;10.40;;;-3.70;1.00;;;-147.47;100.00;69272.31;5163539;27;32029;-74
2022/11/19 07:49:20;;;;;;;19.23;9.48;;;-3.60;1.00;;;-147.47;100.00;69272.31;5141453;27;31229;-74
2022/11/19 07:51:48;;;;;;;16.83;9.40;;;-3.70;1.00;;;-147.47;100.00;69272.31;5144299;27;31489;-77
2022/11/19 07:54:17;;;;;;;14.68;9.32;;;-3.60;1.00;;;-147.47;100.00;69272.31;5174272;27;32485;-75
2022/11/19 07:56:47;;;;;;;18.42;10.95;;;-3.70;1.00;;;-147.47;100.00;69272.31;5157545;27;31938;-74
2022/11/19 07:59:17;;;;;;;18.13;9.65;;;-3.70;1.00;;;-147.47;100.00;69272.31;5141639;27;30530;-74
2022/11/19 08:01:45;;;;;;;16.08;9.77;;;-3.60;1.00;;;-147.47;100.00;69272.31;5138853;27;32401;-76
2022/11/19 08:04:15;;;;;;;15.90;10.07;;;-3.50;1.00;;;-147.47;100.00;69272.31;5154476;27;31753;-75
2022/11/19 08:06:43;;;;;;;15.65;9.35;;;-3.40;1.00;;;-147.47;100.00;69272.31;5162615;27;31299;-75
2022/11/19 08:09:12;;;;;;;16.67;10.07;;;-3.30;1.00;;;-147.47;100.00;69272.31;5161945;27;32823;-77
2022/11/19 08:11:41;;;;;;;15.80;9.95;;;-3.10;1.00;;;-147.47;100.00;69272.31;5161583;27;31996;-77
2022/11/19 08:14:12;;;;;;;16.35;10.43;;;-3.30;1.00;;;-147.47;100.00;69272.31;5178091;27;32682;-76
